sensor_id;sensor_type;location;lat;lon;timestamp;temperature;humidity
51007;DHT22;37034;47.886;-3.904;2024-03-06T00:00:55;11.60;99.90
51007;DHT22;37034;47.886;-3.904;2024-03-06T00:03:21;11.50;99.90
51007;DHT22;37034;47.886;-3.904;2024-03-06T00:05:47;11.50;99.90
51007;DHT22;37034;47.886;-3.904;2024-03-06T00:08:13;11.60;99.90
51007;DHT22;37034;47.886;-3.904;2024-03-06T00:10:41;11.50;99.90
51007;DHT22;37034;47.886;-3.904;2024-03-06T00:13:06;11.60;99.90
51007;DHT22;37034;47.886;-3.904;2024-03-06T00:15:32;11.50;99.90
51007;DHT22;37034;47.886;-3.904;2024-03-06T00:17:57;11.60;99.90
51007;DHT22;37034;47.886;-3.904;2024-03-06T00:20:24;11.60;99.90
51007;DHT22;37034;47.886;-3.904;2024-03-06T00:22:49;11.60;99.90
51007;DHT22;37034;47.886;-3.904;2024-03-06T00:25:15;11.60;99.90
51007;DHT22;37034;47.886;-3.904;2024-03-06T00:27:41;11.60;99.90
51007;DHT22;37034;47.886;-3.904;2024-03-06T00:30:07;11.60;99.90
51007;DHT22;37034;47.886;-3.904;2024-03-06T00:32:33;11.60;99.90
51007;DHT22;37034;47.886;-3.904;2024-03-06T00:34:58;11.60;99.90
51007;DHT22;37034;47.886;-3.904;2024-03-06T00:37:24;11.60;99.90
51007;DHT22;37034;47.886;-3.904;2024-03-06T00:39:49;11.60;99.90
51007;DHT22;37034;47.886;-3.904;2024-03-06T00:42:15;11.60;99.90
51007;DHT22;37034;47.886;-3.904;2024-03-06T00:44:41;11.60;99.90
51007;DHT22;37034;47.886;-3.904;2024-03-06T00:47:07;11.60;99.90
51007;DHT22;37034;47.886;-3.904;2024-03-06T00:49:32;11.50;99.90
51007;DHT22;37034;47.886;-3.904;2024-03-06T00:51:58;11.40;99.90
51007;DHT22;37034;47.886;-3.904;2024-03-06T00:54:23;11.40;99.90
51007;DHT22;37034;47.886;-3.904;2024-03-06T00:56:49;11.40;99.90
51007;DHT22;37034;47.886;-3.904;2024-03-06T00:59:15;11.40;99.90
51007;DHT22;37034;47.886;-3.904;2024-03-06T01:01:40;11.40;99.90
51007;DHT22;37034;47.886;-3.904;2024-03-06T01:04:06;11.40;99.90
51007;DHT22;37034;47.886;-3.904;2024-03-06T01:06:32;11.40;99.90
51007;DHT22;37034;47.886;-3.904;2024-03-06T01:08:58;11.40;99.90
51007;DHT22;37034;47.886;-3.904;2024-03-06T01:11:24;11.40;99.90
51007;DHT22;37034;47.886;-3.904;2024-03-06T01:13:51;11.30;99.90
51007;DHT22;37034;47.886;-3.904;2024-03-06T01:16:17;11.30;99.90
51007;DHT22;37034;47.886;-3.904;2024-03-06T01:18:43;11.30;99.90
51007;DHT22;37034;47.886;-3.904;2024-03-06T01:21:09;11.20;99.90
51007;DHT22;37034;47.886;-3.904;2024-03-06T01:23:35;11.20;99.90
51007;DHT22;37034;47.886;-3.904;2024-03-06T01:26:01;11.20;99.90
51007;DHT22;37034;47.886;-3.904;2024-03-06T01:28:26;11.20;99.90
51007;DHT22;37034;47.886;-3.904;2024-03-06T01:30:52;11.10;99.90
51007;DHT22;37034;47.886;-3.904;2024-03-06T01:33:18;11.10;99.90
51007;DHT22;37034;47.886;-3.904;2024-03-06T01:35:43;11.10;99.90
51007;DHT22;37034;47.886;-3.904;2024-03-06T01:38:09;11.10;99.90
51007;DHT22;37034;47.886;-3.904;2024-03-06T01:40:35;11.10;99.90
51007;DHT22;37034;47.886;-3.904;2024-03-06T01:43:01;11.10;99.90
51007;DHT22;37034;47.886;-3.904;2024-03-06T01:45:27;11.10;99.90
51007;DHT22;37034;47.886;-3.904;2024-03-06T01:47:52;11.20;99.90
51007;DHT22;37034;47.886;-3.904;2024-03-06T01:50:19;11.20;99.90
51007;DHT22;37034;47.886;-3.904;2024-03-06T01:52:45;11.20;99.90
51007;DHT22;37034;47.886;-3.904;2024-03-06T01:55:12;11.20;99.90
51007;DHT22;37034;47.886;-3.904;2024-03-06T01:57:39;11.20;99.90
51007;DHT22;37034;47.886;-3.904;2024-03-06T02:00:08;11.20;99.90
51007;DHT22;37034;47.886;-3.904;2024-03-06T02:02:40;11.20;99.90
51007;DHT22;37034;47.886;-3.904;2024-03-06T02:05:06;11.20;99.90
51007;DHT22;37034;47.886;-3.904;2024-03-06T02:07:32;11.30;99.90
51007;DHT22;37034;47.886;-3.904;2024-03-06T02:09:58;11.30;99.90
51007;DHT22;37034;47.886;-3.904;2024-03-06T02:12:24;11.30;99.90
51007;DHT22;37034;47.886;-3.904;2024-03-06T02:14:50;11.30;99.90
51007;DHT22;37034;47.886;-3.904;2024-03-06T02:17:16;11.30;99.90
51007;DHT22;37034;47.886;-3.904;2024-03-06T02:19:42;11.40;99.90
51007;DHT22;37034;47.886;-3.904;2024-03-06T02:22:09;11.40;99.90
51007;DHT22;37034;47.886;-3.904;2024-03-06T02:24:35;11.40;99.90
51007;DHT22;37034;47.886;-3.904;2024-03-06T02:27:02;11.50;99.90
51007;DHT22;37034;47.886;-3.904;2024-03-06T02:29:28;11.40;99.90
51007;DHT22;37034;47.886;-3.904;2024-03-06T02:31:53;11.40;99.90
51007;DHT22;37034;47.886;-3.904;2024-03-06T02:34:19;11.40;99.90
51007;DHT22;37034;47.886;-3.904;2024-03-06T02:36:46;11.30;99.90
51007;DHT22;37034;47.886;-3.904;2024-03-06T02:39:11;11.30;99.90
51007;DHT22;37034;47.886;-3.904;2024-03-06T02:41:37;11.20;99.90
51007;DHT22;37034;47.886;-3.904;2024-03-06T02:44:03;11.10;99.90
51007;DHT22;37034;47.886;-3.904;2024-03-06T02:46:29;11.10;99.90
51007;DHT22;37034;47.886;-3.904;2024-03-06T02:48:55;11.10;99.90
51007;DHT22;37034;47.886;-3.904;2024-03-06T02:51:21;11.10;99.90
51007;DHT22;37034;47.886;-3.904;2024-03-06T02:53:49;11.10;99.90
51007;DHT22;37034;47.886;-3.904;2024-03-06T02:56:19;11.10;99.90
51007;DHT22;37034;47.886;-3.904;2024-03-06T02:58:45;11.00;99.90
51007;DHT22;37034;47.886;-3.904;2024-03-06T03:01:10;10.90;99.90
51007;DHT22;37034;47.886;-3.904;2024-03-06T03:03:36;10.90;99.90
51007;DHT22;37034;47.886;-3.904;2024-03-06T03:06:02;10.90;99.90
51007;DHT22;37034;47.886;-3.904;2024-03-06T03:08:28;10.90;99.90
51007;DHT22;37034;47.886;-3.904;2024-03-06T03:10:54;10.90;99.90
51007;DHT22;37034;47.886;-3.904;2024-03-06T03:13:20;11.00;99.90
51007;DHT22;37034;47.886;-3.904;2024-03-06T03:15:47;11.00;99.90
51007;DHT22;37034;47.886;-3.904;2024-03-06T03:18:13;11.00;99.90
51007;DHT22;37034;47.886;-3.904;2024-03-06T03:20:39;10.90;99.90
51007;DHT22;37034;47.886;-3.904;2024-03-06T03:23:04;10.80;99.90
51007;DHT22;37034;47.886;-3.904;2024-03-06T03:25:31;10.80;99.90
51007;DHT22;37034;47.886;-3.904;2024-03-06T03:27:59;10.80;99.90
51007;DHT22;37034;47.886;-3.904;2024-03-06T03:30:24;10.80;99.90
51007;DHT22;37034;47.886;-3.904;2024-03-06T03:32:50;10.70;99.90
51007;DHT22;37034;47.886;-3.904;2024-03-06T03:35:15;10.70;99.90
51007;DHT22;37034;47.886;-3.904;2024-03-06T03:37:42;10.70;99.90
51007;DHT22;37034;47.886;-3.904;2024-03-06T03:40:09;10.70;99.90
51007;DHT22;37034;47.886;-3.904;2024-03-06T03:42:38;10.70;99.90
51007;DHT22;37034;47.886;-3.904;2024-03-06T03:45:04;10.70;99.90
51007;DHT22;37034;47.886;-3.904;2024-03-06T03:47:30;10.70;99.90
51007;DHT22;37034;47.886;-3.904;2024-03-06T03:49:55;10.80;99.90
51007;DHT22;37034;47.886;-3.904;2024-03-06T03:52:21;10.90;99.90
51007;DHT22;37034;47.886;-3.904;2024-03-06T03:54:47;10.90;99.90
51007;DHT22;37034;47.886;-3.904;2024-03-06T03:57:13;11.00;99.90
51007;DHT22;37034;47.886;-3.904;2024-03-06T03:59:39;11.00;99.90
51007;DHT22;37034;47.886;-3.904;2024-03-06T04:02:06;11.00;99.90
51007;DHT22;37034;47.886;-3.904;2024-03-06T04:04:32;11.00;99.90
51007;DHT22;37034;47.886;-3.904;2024-03-06T04:06:59;11.10;99.90
51007;DHT22;37034;47.886;-3.904;2024-03-06T04:09:27;11.10;99.90
51007;DHT22;37034;47.886;-3.904;2024-03-06T04:11:53;11.10;99.90
51007;DHT22;37034;47.886;-3.904;2024-03-06T04:14:18;11.10;99.90
51007;DHT22;37034;47.886;-3.904;2024-03-06T04:16:47;11.10;99.90
51007;DHT22;37034;47.886;-3.904;2024-03-06T04:19:13;11.10;99.90
51007;DHT22;37034;47.886;-3.904;2024-03-06T04:21:42;11.20;99.90
51007;DHT22;37034;47.886;-3.904;2024-03-06T04:24:08;11.20;99.90
51007;DHT22;37034;47.886;-3.904;2024-03-06T04:26:33;11.20;99.90
51007;DHT22;37034;47.886;-3.904;2024-03-06T04:28:59;11.20;99.90
51007;DHT22;37034;47.886;-3.904;2024-03-06T04:31:25;11.20;99.90
51007;DHT22;37034;47.886;-3.904;2024-03-06T04:33:50;11.20;99.90
51007;DHT22;37034;47.886;-3.904;2024-03-06T04:36:16;11.20;99.90
51007;DHT22;37034;47.886;-3.904;2024-03-06T04:38:42;11.20;99.90
51007;DHT22;37034;47.886;-3.904;2024-03-06T04:41:08;11.20;99.90
51007;DHT22;37034;47.886;-3.904;2024-03-06T04:43:34;11.30;99.90
51007;DHT22;37034;47.886;-3.904;2024-03-06T04:46:00;11.30;99.90
51007;DHT22;37034;47.886;-3.904;2024-03-06T04:48:26;11.30;99.90
51007;DHT22;37034;47.886;-3.904;2024-03-06T04:50:51;11.30;99.90
51007;DHT22;37034;47.886;-3.904;2024-03-06T04:53:18;11.30;99.90
51007;DHT22;37034;47.886;-3.904;2024-03-06T04:55:45;11.30;99.90
51007;DHT22;37034;47.886;-3.904;2024-03-06T04:58:12;11.30;99.90
51007;DHT22;37034;47.886;-3.904;2024-03-06T05:00:37;11.30;99.90
51007;DHT22;37034;47.886;-3.904;2024-03-06T05:03:03;11.40;99.90
51007;DHT22;37034;47.886;-3.904;2024-03-06T05:05:29;11.30;99.90
51007;DHT22;37034;47.886;-3.904;2024-03-06T05:07:55;11.30;99.90
51007;DHT22;37034;47.886;-3.904;2024-03-06T05:10:21;11.30;99.90
51007;DHT22;37034;47.886;-3.904;2024-03-06T05:12:47;11.40;99.90
51007;DHT22;37034;47.886;-3.904;2024-03-06T05:15:13;11.40;99.90
51007;DHT22;37034;47.886;-3.904;2024-03-06T05:17:39;11.40;99.90
51007;DHT22;37034;47.886;-3.904;2024-03-06T05:20:05;11.30;99.90
51007;DHT22;37034;47.886;-3.904;2024-03-06T05:22:31;11.30;99.90
51007;DHT22;37034;47.886;-3.904;2024-03-06T05:24:57;11.30;99.90
51007;DHT22;37034;47.886;-3.904;2024-03-06T05:27:24;11.30;99.90
51007;DHT22;37034;47.886;-3.904;2024-03-06T05:29:49;11.20;99.90
51007;DHT22;37034;47.886;-3.904;2024-03-06T05:32:15;11.30;99.90
51007;DHT22;37034;47.886;-3.904;2024-03-06T05:34:41;11.30;99.90
51007;DHT22;37034;47.886;-3.904;2024-03-06T05:37:07;11.30;99.90
51007;DHT22;37034;47.886;-3.904;2024-03-06T05:39:32;11.30;99.90
51007;DHT22;37034;47.886;-3.904;2024-03-06T05:42:05;11.30;99.90
51007;DHT22;37034;47.886;-3.904;2024-03-06T05:44:32;11.30;99.90
51007;DHT22;37034;47.886;-3.904;2024-03-06T05:46:59;11.30;99.90
51007;DHT22;37034;47.886;-3.904;2024-03-06T05:49:25;11.30;99.90
51007;DHT22;37034;47.886;-3.904;2024-03-06T05:51:51;11.30;99.90
51007;DHT22;37034;47.886;-3.904;2024-03-06T05:54:16;11.30;99.90
51007;DHT22;37034;47.886;-3.904;2024-03-06T05:56:42;11.30;99.90
51007;DHT22;37034;47.886;-3.904;2024-03-06T05:59:08;11.20;99.90
51007;DHT22;37034;47.886;-3.904;2024-03-06T06:01:34;11.30;99.90
51007;DHT22;37034;47.886;-3.904;2024-03-06T06:04:01;11.30;99.90
51007;DHT22;37034;47.886;-3.904;2024-03-06T06:06:26;11.30;99.90
51007;DHT22;37034;47.886;-3.904;2024-03-06T06:08:52;11.20;99.90
51007;DHT22;37034;47.886;-3.904;2024-03-06T06:11:18;11.20;99.90
51007;DHT22;37034;47.886;-3.904;2024-03-06T06:13:43;11.20;99.90
51007;DHT22;37034;47.886;-3.904;2024-03-06T06:16:09;11.10;99.90
51007;DHT22;37034;47.886;-3.904;2024-03-06T06:18:35;11.10;99.90
51007;DHT22;37034;47.886;-3.904;2024-03-06T06:21:00;11.20;99.90
51007;DHT22;37034;47.886;-3.904;2024-03-06T06:23:26;11.20;99.90
51007;DHT22;37034;47.886;-3.904;2024-03-06T06:25:52;11.20;99.90
51007;DHT22;37034;47.886;-3.904;2024-03-06T06:28:18;11.20;99.90
51007;DHT22;37034;47.886;-3.904;2024-03-06T06:30:43;11.20;99.90
51007;DHT22;37034;47.886;-3.904;2024-03-06T06:33:09;11.20;99.90
51007;DHT22;37034;47.886;-3.904;2024-03-06T06:35:35;11.20;99.90
51007;DHT22;37034;47.886;-3.904;2024-03-06T06:38:01;11.10;99.90
51007;DHT22;37034;47.886;-3.904;2024-03-06T06:40:27;11.10;99.90
51007;DHT22;37034;47.886;-3.904;2024-03-06T06:42:54;11.00;99.90
51007;DHT22;37034;47.886;-3.904;2024-03-06T06:45:20;10.70;99.90
51007;DHT22;37034;47.886;-3.904;2024-03-06T06:47:47;10.50;99.90
51007;DHT22;37034;47.886;-3.904;2024-03-06T06:50:13;10.50;99.90
51007;DHT22;37034;47.886;-3.904;2024-03-06T06:52:39;10.60;99.90
51007;DHT22;37034;47.886;-3.904;2024-03-06T06:55:05;10.50;99.90
51007;DHT22;37034;47.886;-3.904;2024-03-06T06:57:32;10.50;99.90
51007;DHT22;37034;47.886;-3.904;2024-03-06T07:00:01;10.50;99.90
51007;DHT22;37034;47.886;-3.904;2024-03-06T07:02:36;10.60;99.90
51007;DHT22;37034;47.886;-3.904;2024-03-06T07:05:02;10.70;99.90
51007;DHT22;37034;47.886;-3.904;2024-03-06T07:07:30;10.70;99.90
51007;DHT22;37034;47.886;-3.904;2024-03-06T07:09:55;10.80;99.90
51007;DHT22;37034;47.886;-3.904;2024-03-06T07:12:21;10.80;99.90
51007;DHT22;37034;47.886;-3.904;2024-03-06T07:14:47;10.90;99.90
51007;DHT22;37034;47.886;-3.904;2024-03-06T07:17:13;11.00;99.90
51007;DHT22;37034;47.886;-3.904;2024-03-06T07:19:38;11.00;99.90
51007;DHT22;37034;47.886;-3.904;2024-03-06T07:22:05;11.00;99.90
51007;DHT22;37034;47.886;-3.904;2024-03-06T07:24:31;11.00;99.90
51007;DHT22;37034;47.886;-3.904;2024-03-06T07:26:56;11.00;99.90
51007;DHT22;37034;47.886;-3.904;2024-03-06T07:29:22;10.80;99.90
51007;DHT22;37034;47.886;-3.904;2024-03-06T07:31:48;10.80;99.90
51007;DHT22;37034;47.886;-3.904;2024-03-06T07:34:14;10.90;99.90
51007;DHT22;37034;47.886;-3.904;2024-03-06T07:36:43;11.00;99.90
51007;DHT22;37034;47.886;-3.904;2024-03-06T07:39:08;11.00;99.90
51007;DHT22;37034;47.886;-3.904;2024-03-06T07:41:34;11.00;99.90
51007;DHT22;37034;47.886;-3.904;2024-03-06T07:44:00;11.00;99.90
51007;DHT22;37034;47.886;-3.904;2024-03-06T07:46:26;11.00;99.90
51007;DHT22;37034;47.886;-3.904;2024-03-06T07:48:52;10.90;99.90
51007;DHT22;37034;47.886;-3.904;2024-03-06T07:51:17;11.00;99.90
51007;DHT22;37034;47.886;-3.904;2024-03-06T07:53:43;11.10;99.90
51007;DHT22;37034;47.886;-3.904;2024-03-06T07:56:12;11.20;99.90
51007;DHT22;37034;47.886;-3.904;2024-03-06T07:58:38;11.30;99.90
51007;DHT22;37034;47.886;-3.904;2024-03-06T08:01:04;11.30;99.90
51007;DHT22;37034;47.886;-3.904;2024-03-06T08:03:29;11.40;99.90
51007;DHT22;37034;47.886;-3.904;2024-03-06T08:05:55;11.40;99.90
51007;DHT22;37034;47.886;-3.904;2024-03-06T08:08:21;11.40;99.90
51007;DHT22;37034;47.886;-3.904;2024-03-06T08:10:47;11.40;99.90
51007;DHT22;37034;47.886;-3.904;2024-03-06T08:13:13;11.50;99.90
51007;DHT22;37034;47.886;-3.904;2024-03-06T08:15:39;11.50;99.90
51007;DHT22;37034;47.886;-3.904;2024-03-06T08:18:06;11.40;99.90
51007;DHT22;37034;47.886;-3.904;2024-03-06T08:20:32;11.40;99.90
51007;DHT22;37034;47.886;-3.904;2024-03-06T08:22:58;11.50;99.90
51007;DHT22;37034;47.886;-3.904;2024-03-06T08:25:24;11.50;99.90
51007;DHT22;37034;47.886;-3.904;2024-03-06T08:27:50;11.60;99.90
51007;DHT22;37034;47.886;-3.904;2024-03-06T08:30:15;11.60;99.90
51007;DHT22;37034;47.886;-3.904;2024-03-06T08:32:41;11.70;99.90
51007;DHT22;37034;47.886;-3.904;2024-03-06T08:35:10;11.70;99.90
51007;DHT22;37034;47.886;-3.904;2024-03-06T08:37:39;11.80;99.90
51007;DHT22;37034;47.886;-3.904;2024-03-06T08:40:06;11.90;99.90
51007;DHT22;37034;47.886;-3.904;2024-03-06T08:42:40;12.00;99.90
51007;DHT22;37034;47.886;-3.904;2024-03-06T08:45:07;12.00;99.90
51007;DHT22;37034;47.886;-3.904;2024-03-06T08:47:33;12.00;99.90
51007;DHT22;37034;47.886;-3.904;2024-03-06T08:49:59;12.10;99.90
51007;DHT22;37034;47.886;-3.904;2024-03-06T08:52:25;12.10;99.90
51007;DHT22;37034;47.886;-3.904;2024-03-06T08:54:50;12.20;99.90
51007;DHT22;37034;47.886;-3.904;2024-03-06T08:57:16;12.30;99.90
51007;DHT22;37034;47.886;-3.904;2024-03-06T08:59:42;12.30;99.90
51007;DHT22;37034;47.886;-3.904;2024-03-06T09:02:17;12.30;99.90
51007;DHT22;37034;47.886;-3.904;2024-03-06T09:04:44;12.40;99.90
51007;DHT22;37034;47.886;-3.904;2024-03-06T09:07:10;12.50;99.90
51007;DHT22;37034;47.886;-3.904;2024-03-06T09:09:36;12.60;99.90
51007;DHT22;37034;47.886;-3.904;2024-03-06T09:12:06;12.70;99.90
51007;DHT22;37034;47.886;-3.904;2024-03-06T09:14:38;12.80;99.90
51007;DHT22;37034;47.886;-3.904;2024-03-06T09:17:05;12.80;99.90
51007;DHT22;37034;47.886;-3.904;2024-03-06T09:19:31;12.90;99.90
51007;DHT22;37034;47.886;-3.904;2024-03-06T09:21:58;12.90;99.90
51007;DHT22;37034;47.886;-3.904;2024-03-06T09:24:24;13.00;99.90
51007;DHT22;37034;47.886;-3.904;2024-03-06T09:26:53;13.10;99.90
51007;DHT22;37034;47.886;-3.904;2024-03-06T09:29:19;13.10;99.90
51007;DHT22;37034;47.886;-3.904;2024-03-06T09:31:46;13.20;99.90
51007;DHT22;37034;47.886;-3.904;2024-03-06T09:34:13;13.20;99.90
51007;DHT22;37034;47.886;-3.904;2024-03-06T09:36:41;13.30;99.90
51007;DHT22;37034;47.886;-3.904;2024-03-06T09:39:17;13.30;99.90
51007;DHT22;37034;47.886;-3.904;2024-03-06T09:41:46;13.30;99.90
51007;DHT22;37034;47.886;-3.904;2024-03-06T09:44:13;13.30;99.90
51007;DHT22;37034;47.886;-3.904;2024-03-06T09:46:42;13.40;99.90
51007;DHT22;37034;47.886;-3.904;2024-03-06T09:49:10;13.50;99.90
51007;DHT22;37034;47.886;-3.904;2024-03-06T09:51:38;13.50;99.90
51007;DHT22;37034;47.886;-3.904;2024-03-06T09:54:07;13.50;99.90
51007;DHT22;37034;47.886;-3.904;2024-03-06T09:56:33;13.60;99.90
51007;DHT22;37034;47.886;-3.904;2024-03-06T09:58:59;13.60;99.90
51007;DHT22;37034;47.886;-3.904;2024-03-06T10:01:26;13.60;99.90
51007;DHT22;37034;47.886;-3.904;2024-03-06T10:03:53;13.70;99.90
51007;DHT22;37034;47.886;-3.904;2024-03-06T10:06:19;13.70;99.90
51007;DHT22;37034;47.886;-3.904;2024-03-06T10:08:46;13.80;99.90
51007;DHT22;37034;47.886;-3.904;2024-03-06T10:11:12;13.80;99.90
51007;DHT22;37034;47.886;-3.904;2024-03-06T10:13:38;13.80;99.90
51007;DHT22;37034;47.886;-3.904;2024-03-06T10:16:05;13.90;99.90
51007;DHT22;37034;47.886;-3.904;2024-03-06T10:18:37;14.00;99.90
51007;DHT22;37034;47.886;-3.904;2024-03-06T10:21:06;14.20;99.90
51007;DHT22;37034;47.886;-3.904;2024-03-06T10:23:32;14.30;99.90
51007;DHT22;37034;47.886;-3.904;2024-03-06T10:25:58;14.40;99.90
51007;DHT22;37034;47.886;-3.904;2024-03-06T10:28:24;14.50;99.90
51007;DHT22;37034;47.886;-3.904;2024-03-06T10:30:50;14.50;99.90
51007;DHT22;37034;47.886;-3.904;2024-03-06T10:33:18;14.60;99.90
51007;DHT22;37034;47.886;-3.904;2024-03-06T10:35:47;14.60;99.90
51007;DHT22;37034;47.886;-3.904;2024-03-06T10:38:19;14.70;99.90
51007;DHT22;37034;47.886;-3.904;2024-03-06T10:40:45;14.70;99.90
51007;DHT22;37034;47.886;-3.904;2024-03-06T10:43:11;14.70;99.90
51007;DHT22;37034;47.886;-3.904;2024-03-06T10:45:51;14.70;99.90
51007;DHT22;37034;47.886;-3.904;2024-03-06T10:48:20;14.70;99.90
51007;DHT22;37034;47.886;-3.904;2024-03-06T10:50:46;14.80;99.90
51007;DHT22;37034;47.886;-3.904;2024-03-06T10:53:14;14.80;99.90
51007;DHT22;37034;47.886;-3.904;2024-03-06T10:55:43;14.90;99.90
51007;DHT22;37034;47.886;-3.904;2024-03-06T10:58:12;14.80;99.90
51007;DHT22;37034;47.886;-3.904;2024-03-06T11:00:45;14.80;99.90
51007;DHT22;37034;47.886;-3.904;2024-03-06T11:03:15;14.80;99.90
51007;DHT22;37034;47.886;-3.904;2024-03-06T11:05:45;14.90;99.90
51007;DHT22;37034;47.886;-3.904;2024-03-06T11:08:14;14.90;99.90
51007;DHT22;37034;47.886;-3.904;2024-03-06T11:10:41;14.80;99.90
51007;DHT22;37034;47.886;-3.904;2024-03-06T11:15:46;14.70;99.90
51007;DHT22;37034;47.886;-3.904;2024-03-06T11:24:13;14.90;99.90
51007;DHT22;37034;47.886;-3.904;2024-03-06T11:29:22;15.00;99.90
51007;DHT22;37034;47.886;-3.904;2024-03-06T11:32:08;15.10;99.90
51007;DHT22;37034;47.886;-3.904;2024-03-06T11:34:35;15.20;99.90
51007;DHT22;37034;47.886;-3.904;2024-03-06T11:37:04;15.20;99.90
51007;DHT22;37034;47.886;-3.904;2024-03-06T11:39:37;15.30;99.90
51007;DHT22;37034;47.886;-3.904;2024-03-06T11:42:03;15.20;99.90
51007;DHT22;37034;47.886;-3.904;2024-03-06T11:44:34;15.20;99.90
51007;DHT22;37034;47.886;-3.904;2024-03-06T11:47:03;15.20;99.90
51007;DHT22;37034;47.886;-3.904;2024-03-06T11:49:32;15.20;99.90
51007;DHT22;37034;47.886;-3.904;2024-03-06T11:52:07;15.20;99.90
51007;DHT22;37034;47.886;-3.904;2024-03-06T11:54:33;15.20;99.90
51007;DHT22;37034;47.886;-3.904;2024-03-06T11:57:02;15.10;99.90
51007;DHT22;37034;47.886;-3.904;2024-03-06T11:59:32;15.00;99.90
51007;DHT22;37034;47.886;-3.904;2024-03-06T12:02:03;15.00;99.90
51007;DHT22;37034;47.886;-3.904;2024-03-06T12:04:33;14.70;99.90
51007;DHT22;37034;47.886;-3.904;2024-03-06T12:07:00;14.80;99.90
51007;DHT22;37034;47.886;-3.904;2024-03-06T12:09:30;15.00;99.90
51007;DHT22;37034;47.886;-3.904;2024-03-06T12:11:56;15.30;99.90
51007;DHT22;37034;47.886;-3.904;2024-03-06T12:14:25;15.50;99.90
51007;DHT22;37034;47.886;-3.904;2024-03-06T12:16:55;15.60;99.90
51007;DHT22;37034;47.886;-3.904;2024-03-06T12:19:21;15.60;99.90
51007;DHT22;37034;47.886;-3.904;2024-03-06T12:21:48;15.70;99.90
51007;DHT22;37034;47.886;-3.904;2024-03-06T12:24:16;15.70;99.90
51007;DHT22;37034;47.886;-3.904;2024-03-06T12:26:44;15.80;99.90
51007;DHT22;37034;47.886;-3.904;2024-03-06T12:29:11;15.90;99.90
51007;DHT22;37034;47.886;-3.904;2024-03-06T12:31:38;16.10;99.90
51007;DHT22;37034;47.886;-3.904;2024-03-06T12:34:05;16.30;99.90
51007;DHT22;37034;47.886;-3.904;2024-03-06T12:36:32;16.30;99.90
51007;DHT22;37034;47.886;-3.904;2024-03-06T12:38:59;16.20;99.90
51007;DHT22;37034;47.886;-3.904;2024-03-06T12:41:26;16.10;99.90
51007;DHT22;37034;47.886;-3.904;2024-03-06T12:43:52;16.20;99.90
51007;DHT22;37034;47.886;-3.904;2024-03-06T12:46:18;16.30;99.90
51007;DHT22;37034;47.886;-3.904;2024-03-06T12:48:45;16.40;99.90
51007;DHT22;37034;47.886;-3.904;2024-03-06T12:51:10;16.40;99.90
51007;DHT22;37034;47.886;-3.904;2024-03-06T12:53:36;16.20;99.90
51007;DHT22;37034;47.886;-3.904;2024-03-06T12:56:02;16.10;99.90
51007;DHT22;37034;47.886;-3.904;2024-03-06T12:58:28;16.00;99.90
51007;DHT22;37034;47.886;-3.904;2024-03-06T13:00:53;15.90;99.90
51007;DHT22;37034;47.886;-3.904;2024-03-06T13:03:20;16.00;99.90
51007;DHT22;37034;47.886;-3.904;2024-03-06T13:05:46;16.10;99.90
51007;DHT22;37034;47.886;-3.904;2024-03-06T13:08:12;16.10;99.90
51007;DHT22;37034;47.886;-3.904;2024-03-06T13:10:41;16.00;99.90
51007;DHT22;37034;47.886;-3.904;2024-03-06T13:13:07;16.10;99.90
51007;DHT22;37034;47.886;-3.904;2024-03-06T13:15:33;16.20;99.90
51007;DHT22;37034;47.886;-3.904;2024-03-06T13:18:03;16.30;99.90
51007;DHT22;37034;47.886;-3.904;2024-03-06T13:20:29;16.30;99.90
51007;DHT22;37034;47.886;-3.904;2024-03-06T13:22:54;16.40;99.90
51007;DHT22;37034;47.886;-3.904;2024-03-06T13:25:20;16.40;99.90
51007;DHT22;37034;47.886;-3.904;2024-03-06T13:27:55;16.40;99.90
51007;DHT22;37034;47.886;-3.904;2024-03-06T13:30:21;16.40;99.90
51007;DHT22;37034;47.886;-3.904;2024-03-06T13:32:46;16.40;99.90
51007;DHT22;37034;47.886;-3.904;2024-03-06T13:35:13;16.40;99.90
51007;DHT22;37034;47.886;-3.904;2024-03-06T13:37:42;16.20;99.90
51007;DHT22;37034;47.886;-3.904;2024-03-06T13:40:08;16.20;99.90
51007;DHT22;37034;47.886;-3.904;2024-03-06T13:42:36;16.30;99.90
51007;DHT22;37034;47.886;-3.904;2024-03-06T13:45:03;16.20;99.90
51007;DHT22;37034;47.886;-3.904;2024-03-06T13:47:28;16.30;99.90
51007;DHT22;37034;47.886;-3.904;2024-03-06T13:49:54;16.20;99.90
51007;DHT22;37034;47.886;-3.904;2024-03-06T13:52:21;16.20;99.90
51007;DHT22;37034;47.886;-3.904;2024-03-06T13:54:47;16.00;99.90
51007;DHT22;37034;47.886;-3.904;2024-03-06T13:57:15;16.20;99.90
51007;DHT22;37034;47.886;-3.904;2024-03-06T13:59:41;16.40;99.90
51007;DHT22;37034;47.886;-3.904;2024-03-06T14:02:07;16.60;99.90
51007;DHT22;37034;47.886;-3.904;2024-03-06T14:04:33;16.80;99.90
51007;DHT22;37034;47.886;-3.904;2024-03-06T14:06:59;16.80;99.90
51007;DHT22;37034;47.886;-3.904;2024-03-06T14:09:25;16.90;99.90
51007;DHT22;37034;47.886;-3.904;2024-03-06T14:11:52;17.00;99.90
51007;DHT22;37034;47.886;-3.904;2024-03-06T14:14:18;17.00;99.90
51007;DHT22;37034;47.886;-3.904;2024-03-06T14:16:44;16.70;99.90
51007;DHT22;37034;47.886;-3.904;2024-03-06T14:19:10;16.40;99.90
51007;DHT22;37034;47.886;-3.904;2024-03-06T14:21:37;16.10;99.90
51007;DHT22;37034;47.886;-3.904;2024-03-06T14:24:04;16.20;99.90
51007;DHT22;37034;47.886;-3.904;2024-03-06T14:26:31;16.10;99.90
51007;DHT22;37034;47.886;-3.904;2024-03-06T14:29:01;16.00;99.90
51007;DHT22;37034;47.886;-3.904;2024-03-06T14:31:28;16.20;99.90
51007;DHT22;37034;47.886;-3.904;2024-03-06T14:33:53;16.30;99.90
51007;DHT22;37034;47.886;-3.904;2024-03-06T14:36:19;16.50;99.90
51007;DHT22;37034;47.886;-3.904;2024-03-06T14:38:47;16.60;99.90
51007;DHT22;37034;47.886;-3.904;2024-03-06T14:41:13;16.80;99.90
51007;DHT22;37034;47.886;-3.904;2024-03-06T14:43:39;16.60;99.90
51007;DHT22;37034;47.886;-3.904;2024-03-06T14:46:05;16.70;99.90
51007;DHT22;37034;47.886;-3.904;2024-03-06T14:48:32;16.80;99.90
51007;DHT22;37034;47.886;-3.904;2024-03-06T14:50:57;16.80;99.90
51007;DHT22;37034;47.886;-3.904;2024-03-06T14:53:23;16.90;99.90
51007;DHT22;37034;47.886;-3.904;2024-03-06T14:55:48;17.00;99.90
51007;DHT22;37034;47.886;-3.904;2024-03-06T14:58:14;17.00;99.90
51007;DHT22;37034;47.886;-3.904;2024-03-06T15:00:40;16.90;99.90
51007;DHT22;37034;47.886;-3.904;2024-03-06T15:03:05;16.80;99.90
51007;DHT22;37034;47.886;-3.904;2024-03-06T15:05:33;16.90;99.90
51007;DHT22;37034;47.886;-3.904;2024-03-06T15:07:58;16.90;99.90
51007;DHT22;37034;47.886;-3.904;2024-03-06T15:10:24;16.80;99.90
51007;DHT22;37034;47.886;-3.904;2024-03-06T15:12:49;16.90;99.90
51007;DHT22;37034;47.886;-3.904;2024-03-06T15:15:15;16.80;99.90
51007;DHT22;37034;47.886;-3.904;2024-03-06T15:17:41;16.60;99.90
51007;DHT22;37034;47.886;-3.904;2024-03-06T15:20:07;16.70;99.90
51007;DHT22;37034;47.886;-3.904;2024-03-06T15:22:36;16.80;99.90